Time;durP1;ratioP1;P1;durP2;ratioP2;P2;SDS_P1;SDS_P2;PMS_P1;PMS_P2;Temp;Humidity;BMP_temperature;BMP_pressure;BME280_temperature;BME280_humidity;BME280_pressure;Samples;Min_cycle;Max_cycle;Signal;HPM_P1;HPM_P2
2023/01/25 00:00:05;;;;;;;14.80;12.23;;;;;;;2.73;73.99;100808.34;5105798;28;20046;-74
2023/01/25 00:02:32;;;;;;;16.83;12.45;;;;;;;2.75;73.88;100816.19;5105602;28;20044;-74
2023/01/25 00:04:59;;;;;;;16.75;13.10;;;;;;;0.03;73.57;100343.81;5106826;28;20199;-74
2023/01/25 00:07:26;;;;;;;17.02;13.07;;;;;;;2.76;73.82;100812.72;5107059;28;20047;-74
2023/01/25 00:09:52;;;;;;;18.02;11.90;;;;;;;2.75;73.79;100811.84;5105597;28;20032;-75
2023/01/25 00:12:20;;;;;;;16.25;12.82;;;;;;;2.75;73.76;100800.50;5105721;28;20050;-74
2023/01/25 00:14:47;;;;;;;17.83;13.05;;;;;;;2.75;73.87;100805.72;5106291;28;20044;-75
2023/01/25 00:17:14;;;;;;;16.92;13.15;;;;;;;2.74;73.82;100812.72;5105510;28;20040;-74
2023/01/25 00:19:41;;;;;;;21.23;13.30;;;;;;;2.75;73.84;100816.19;5106806;28;20062;-74
2023/01/25 00:22:07;;;;;;;17.25;12.77;;;;;;;2.74;73.79;100814.44;5106705;28;20054;-74
2023/01/25 00:24:34;;;;;;;15.02;12.05;;;;;;;2.73;73.99;100816.19;5106332;28;20054;-74
2023/01/25 00:27:02;;;;;;;14.25;11.50;;;;;;;2.54;73.98;100801.34;5106718;28;20055;-74
2023/01/25 00:29:30;;;;;;;15.38;11.20;;;;;;;2.71;73.88;100815.31;5106110;28;20043;-74
2023/01/25 00:32:08;;;;;;;15.50;11.63;;;;;;;2.71;73.69;100817.06;5106358;28;20044;-74
2023/01/25 00:34:53;;;;;;;15.18;11.60;;;;;;;2.44;73.77;100773.44;5106603;28;20048;-74
2023/01/25 00:37:30;;;;;;;15.23;11.90;;;;;;;2.69;73.95;100824.91;5106165;28;20035;-74
2023/01/25 00:39:57;;;;;;;15.25;12.23;;;;;;;2.70;73.95;100824.06;5105966;28;20097;-74
2023/01/25 00:42:24;;;;;;;16.80;12.02;;;;;;;2.70;74.08;100818.81;5105844;28;20296;-74
2023/01/25 00:44:52;;;;;;;18.98;11.23;;;;;;;2.71;73.88;100822.31;5105926;28;20040;-74
2023/01/25 00:47:19;;;;;;;16.90;12.57;;;;;;;2.70;73.89;100818.81;5105917;28;20074;-74
2023/01/25 00:49:46;;;;;;;16.85;11.95;;;;;;;2.70;74.03;100824.06;5105633;28;20292;-75
2023/01/25 00:52:13;;;;;;;16.02;11.90;;;;;;;2.71;73.86;100828.41;5106115;28;20089;-74
2023/01/25 00:54:40;;;;;;;20.05;13.00;;;;;;;2.72;73.84;100824.94;5105808;28;20052;-74
2023/01/25 00:57:08;;;;;;;16.25;12.02;;;;;;;2.73;74.00;100831.91;5104927;28;20043;-74
2023/01/25 00:59:35;;;;;;;17.88;12.38;;;;;;;2.72;73.88;100824.94;5105695;28;20040;-74
2023/01/25 01:02:03;;;;;;;16.92;12.38;;;;;;;2.73;73.93;100833.66;5105191;28;20101;-74
2023/01/25 01:04:30;;;;;;;17.38;12.07;;;;;;;2.32;73.87;100763.84;5106212;28;20110;-75
2023/01/25 01:06:57;;;;;;;16.13;12.02;;;;;;;2.72;73.88;100832.78;5104787;28;20173;-75
2023/01/25 01:09:24;;;;;;;17.02;12.10;;;;;;;2.72;74.06;100838.00;5105907;28;20047;-74
2023/01/25 01:11:51;;;;;;;18.75;13.35;;;;;;;2.72;73.89;100832.78;5105040;28;20032;-74
2023/01/25 01:14:18;;;;;;;16.70;13.15;;;;;;;2.50;74.12;100783.91;5105652;28;20051;-74
2023/01/25 01:16:45;;;;;;;15.77;12.88;;;;;;;2.70;74.07;100818.81;5106173;28;20032;-74
2023/01/25 01:19:14;;;;;;;20.23;13.68;;;;;;;2.12;74.01;100721.97;5106138;28;20047;-75
2023/01/25 01:21:40;;;;;;;19.50;13.18;;;;;;;2.69;74.12;100819.69;5104597;28;20062;-75
2023/01/25 01:24:09;;;;;;;19.48;14.95;;;;;;;2.68;74.03;100820.56;5106033;28;20046;-75
2023/01/25 01:26:36;;;;;;;21.10;14.82;;;;;;;2.68;74.01;100823.19;5105510;28;20054;-74
2023/01/25 01:29:03;;;;;;;20.80;13.75;;;;;;;2.07;74.24;100728.06;5104953;28;20245;-74
2023/01/25 01:31:30;;;;;;;16.65;12.38;;;;;;;2.68;74.09;100820.56;5104572;28;20044;-74
2023/01/25 01:33:58;;;;;;;17.13;12.35;;;;;;;2.69;74.17;100821.44;5105384;28;20047;-74
2023/01/25 01:36:28;;;;;;;15.52;12.45;;;;;;;2.69;73.80;100814.44;5105960;28;20047;-74
2023/01/25 01:38:56;;;;;;;17.38;12.63;;;;;;;2.29;74.12;100773.44;5105622;28;20303;-74
2023/01/25 01:41:22;;;;;;;16.75;13.68;;;;;;;2.68;74.00;100820.56;5105245;28;20314;-74
2023/01/25 01:43:51;;;;;;;16.33;12.45;;;;;;;2.19;74.06;100749.88;5105629;28;20051;-74
2023/01/25 01:46:24;;;;;;;17.13;12.65;;;;;;;2.11;74.11;100732.44;5104453;28;20036;-74
2023/01/25 01:48:54;;;;;;;16.55;12.43;;;;;;;2.56;74.21;100797.00;5104371;28;20040;-74
2023/01/25 01:51:28;;;;;;;16.27;13.43;;;;;;;2.68;74.24;100823.19;5105569;28;20036;-75
2023/01/25 01:54:00;;;;;;;17.67;13.88;;;;;;;2.69;74.27;100817.06;5105536;28;20200;-74
2023/01/25 01:56:33;;;;;;;17.95;13.55;;;;;;;2.70;74.14;100812.72;5105717;28;20046;-74
2023/01/25 01:59:01;;;;;;;17.20;13.27;;;;;;;2.72;74.29;100813.59;5105165;28;20048;-75
2023/01/25 02:01:27;;;;;;;16.98;13.07;;;;;;;2.72;74.07;100810.97;5106979;28;20184;-75
2023/01/25 02:03:56;;;;;;;17.38;12.23;;;;;;;2.72;74.15;100806.59;5108098;28;20349;-76
2023/01/25 02:06:42;;;;;;;19.00;14.93;;;;;;;2.71;74.08;100807.47;5108880;28;20044;-74
2023/01/25 02:09:09;;;;;;;18.48;13.15;;;;;;;2.70;74.10;100813.59;5109387;28;20044;-74
2023/01/25 02:11:37;;;;;;;16.05;13.02;;;;;;;2.71;74.01;100811.84;5109341;28;20058;-74
2023/01/25 02:14:04;;;;;;;17.75;12.80;;;;;;;2.70;74.29;100813.59;5109008;28;20199;-74
2023/01/25 02:16:31;;;;;;;17.50;12.30;;;;;;;2.71;74.21;100815.31;5107823;28;20047;-74
2023/01/25 02:19:01;;;;;;;16.17;11.60;;;;;;;2.69;74.26;100814.44;5109183;28;20044;-74
2023/01/25 02:21:38;;;;;;;16.30;12.80;;;;;;;2.68;74.26;100806.59;5107936;28;20036;-74
2023/01/25 02:24:09;;;;;;;16.00;12.98;;;;;;;2.66;74.31;100809.22;5109129;28;20039;-74
2023/01/25 02:26:39;;;;;;;17.23;12.40;;;;;;;2.67;74.37;100815.31;5107691;28;20039;-74
2023/01/25 02:29:08;;;;;;;19.90;15.85;;;;;;;2.68;74.40;100812.72;5108488;28;20046;-74
2023/01/25 02:31:35;;;;;;;17.50;13.93;;;;;;;2.69;74.25;100811.84;5108658;28;20284;-74
2023/01/25 02:34:02;;;;;;;16.55;12.52;;;;;;;2.70;74.36;100810.09;5107510;28;20040;-74
2023/01/25 02:36:30;;;;;;;16.70;12.68;;;;;;;2.70;74.27;100808.34;5108788;28;20055;-75
2023/01/25 02:39:01;;;;;;;17.15;13.15;;;;;;;2.70;74.12;100800.50;5107373;28;20089;-74
2023/01/25 02:41:33;;;;;;;17.55;13.85;;;;;;;2.71;74.31;100807.47;5108602;28;20215;-75
2023/01/25 02:44:05;;;;;;;17.10;13.15;;;;;;;2.59;74.29;100780.44;5108158;28;20052;-75
2023/01/25 02:46:34;;;;;;;17.10;13.77;;;;;;;2.69;74.25;100796.13;5107248;28;20341;-75
2023/01/25 02:49:02;;;;;;;18.27;13.10;;;;;;;2.67;74.52;100803.09;5108636;28;20246;-76
2023/01/25 02:51:32;;;;;;;17.13;13.35;;;;;;;2.65;74.50;100804.84;5108201;28;20052;-76
2023/01/25 02:54:00;;;;;;;16.95;13.55;;;;;;;2.06;74.74;100708.91;5107118;28;20036;-76
2023/01/25 02:56:27;;;;;;;17.35;12.48;;;;;;;2.63;74.64;100788.28;5107633;28;20044;-74
2023/01/25 02:58:53;;;;;;;16.05;12.73;;;;;;;2.66;74.67;100790.88;5107060;28;20039;-74
2023/01/25 03:01:22;;;;;;;17.23;14.02;;;;;;;2.67;74.62;100787.41;5106996;28;20083;-75
2023/01/25 03:03:49;;;;;;;15.75;12.25;;;;;;;2.69;74.38;100782.16;5107771;28;20044;-74
2023/01/25 03:06:16;;;;;;;18.65;13.85;;;;;;;2.68;74.45;100778.69;5108065;28;20040;-75
2023/01/25 03:08:43;;;;;;;18.15;13.70;;;;;;;1.85;74.39;100647.00;5108038;28;20296;-74
2023/01/25 03:11:10;;;;;;;17.25;13.45;;;;;;;2.68;74.58;100769.94;5107395;28;20044;-74
2023/01/25 03:13:37;;;;;;;15.27;13.32;;;;;;;2.69;74.39;100767.34;5106621;28;20036;-74
2023/01/25 03:16:07;;;;;;;17.33;12.43;;;;;;;2.69;74.38;100759.47;5106752;28;20036;-74
2023/01/25 03:18:36;;;;;;;16.90;13.73;;;;;;;2.71;74.41;100756.84;5107773;28;20177;-74
2023/01/25 03:21:08;;;;;;;14.30;11.48;;;;;;;2.69;74.40;100754.25;5108024;28;20047;-74
2023/01/25 03:23:35;;;;;;;17.02;12.07;;;;;;;2.69;74.49;100751.63;5106447;28;20044;-74
2023/01/25 03:26:10;;;;;;;16.23;11.45;;;;;;;2.29;74.27;100697.56;5107321;28;20044;-74
2023/01/25 03:28:37;;;;;;;17.15;12.68;;;;;;;2.68;74.33;100749.00;5107638;28;20284;-74
2023/01/25 03:31:05;;;;;;;15.45;12.82;;;;;;;2.68;74.48;100749.88;5106506;28;20125;-74
2023/01/25 03:33:31;;;;;;;17.15;12.93;;;;;;;2.68;74.39;100739.41;5107166;28;20028;-74
2023/01/25 03:36:00;;;;;;;15.88;12.30;;;;;;;2.56;74.36;100721.09;5107385;28;20181;-73
2023/01/25 03:38:27;;;;;;;16.63;12.50;;;;;;;2.70;74.25;100736.78;5107066;28;20032;-74
2023/01/25 03:40:54;;;;;;;18.60;13.50;;;;;;;2.68;74.76;100735.91;5107614;28;20046;-74
2023/01/25 03:43:21;;;;;;;20.02;14.50;;;;;;;2.23;74.25;100667.06;5106863;28;20234;-75
2023/01/25 03:45:52;;;;;;;18.20;13.63;;;;;;;2.66;74.28;100730.69;5107206;28;20280;-74
2023/01/25 03:48:19;;;;;;;17.20;13.38;;;;;;;2.67;74.43;100723.72;5106649;28;20199;-74
2023/01/25 03:50:49;;;;;;;15.15;13.05;;;;;;;2.67;74.32;100721.09;5106918;28;20149;-74
2023/01/25 03:53:26;;;;;;;16.83;12.18;;;;;;;2.68;74.45;100714.97;5107049;28;20047;-74
2023/01/25 03:55:54;;;;;;;16.27;12.35;;;;;;;2.67;74.35;100708.88;5105882;28;20220;-74
2023/01/25 03:58:21;;;;;;;18.83;13.68;;;;;;;2.65;74.47;100717.59;5106802;28;20036;-74
2023/01/25 04:00:48;;;;;;;21.00;12.90;;;;;;;2.64;74.55;100729.81;5106934;28;20040;-74
2023/01/25 04:03:18;;;;;;;17.67;12.60;;;;;;;2.64;74.61;100721.97;5106379;28;20063;-74
2023/01/25 04:05:45;;;;;;;18.00;13.95;;;;;;;2.63;74.59;100722.84;5106579;28;20036;-74
2023/01/25 04:08:12;;;;;;;16.45;13.68;;;;;;;2.63;74.54;100720.22;5105635;28;20181;-74
2023/01/25 04:10:40;;;;;;;17.58;12.77;;;;;;;2.49;74.60;100690.56;5105607;28;20051;-74
2023/01/25 04:13:07;;;;;;;16.77;13.27;;;;;;;2.65;74.62;100715.84;5106906;28;20031;-74
2023/01/25 04:15:34;;;;;;;19.95;14.75;;;;;;;2.66;74.55;100716.72;5106326;28;20150;-75
2023/01/25 04:18:01;;;;;;;16.60;12.55;;;;;;;2.66;74.45;100716.72;5106248;28;20058;-75
2023/01/25 04:20:28;;;;;;;18.17;13.90;;;;;;;2.65;74.59;100720.22;5106215;28;20040;-75
2023/01/25 04:22:55;;;;;;;18.10;13.13;;;;;;;2.63;74.49;100722.84;5105794;28;20044;-74
2023/01/25 04:25:21;;;;;;;16.83;12.88;;;;;;;2.62;74.54;100720.22;5105042;28;20035;-75
2023/01/25 04:27:50;;;;;;;18.33;12.48;;;;;;;2.60;74.59;100712.38;5105138;28;20043;-73
2023/01/25 04:30:17;;;;;;;14.98;11.52;;;;;;;2.60;74.59;100707.13;5106639;28;20047;-74
2023/01/25 04:32:43;;;;;;;14.20;12.65;;;;;;;0.18;74.42;100292.59;5106613;28;20047;-74
2023/01/25 04:35:10;;;;;;;16.75;12.63;;;;;;;2.63;74.43;100708.88;5106047;28;20032;-74
2023/01/25 04:37:37;;;;;;;17.30;13.20;;;;;;;2.63;74.48;100707.13;5106550;28;20195;-74
2023/01/25 04:40:05;;;;;;;15.88;12.82;;;;;;;2.63;74.48;100707.13;5105134;28;20043;-74
2023/01/25 04:42:32;;;;;;;16.15;12.70;;;;;;;2.63;74.46;100704.50;5106170;28;20040;-74
2023/01/25 04:45:00;;;;;;;17.10;12.40;;;;;;;2.63;74.61;100707.13;5105065;28;20207;-73
2023/01/25 04:47:27;;;;;;;17.00;13.02;;;;;;;2.63;74.58;100701.03;5105908;28;20048;-74
2023/01/25 04:49:53;;;;;;;17.40;13.00;;;;;;;2.63;74.54;100698.41;5106118;28;20215;-74
2023/01/25 04:52:20;;;;;;;15.50;12.80;;;;;;;2.64;74.51;100700.16;5106358;28;20040;-74
2023/01/25 04:54:47;;;;;;;17.02;12.20;;;;;;;2.65;74.56;100691.44;5105758;28;20046;-74
2023/01/25 04:57:14;;;;;;;17.55;13.10;;;;;;;2.63;74.40;100693.16;5105910;28;20330;-74
2023/01/25 04:59:40;;;;;;;18.08;13.00;;;;;;;2.63;74.62;100690.56;5106479;28;20089;-74
2023/01/25 05:02:09;;;;;;;18.10;14.27;;;;;;;2.62;74.59;100702.78;5105825;28;20056;-74
2023/01/25 05:04:36;;;;;;;17.25;13.20;;;;;;;2.61;74.56;100697.53;5105741;28;20036;-74
2023/01/25 05:07:02;;;;;;;17.48;13.07;;;;;;;2.61;74.60;100698.41;5106013;28;20188;-74
2023/01/25 05:09:29;;;;;;;17.15;12.88;;;;;;;2.60;74.65;100699.28;5106097;28;20309;-74
2023/01/25 05:11:56;;;;;;;17.95;14.25;;;;;;;2.61;74.72;100703.66;5104820;28;20115;-74
2023/01/25 05:14:23;;;;;;;19.30;13.25;;;;;;;2.62;74.64;100699.28;5104752;28;20032;-74
2023/01/25 05:16:50;;;;;;;16.75;12.65;;;;;;;2.63;74.61;100703.63;5104736;28;20044;-74
2023/01/25 05:19:18;;;;;;;16.23;13.07;;;;;;;2.62;74.67;100702.78;5106092;28;20044;-74
2023/01/25 05:22:00;;;;;;;19.33;13.43;;;;;;;2.62;74.64;100702.78;5105865;28;20044;-74
2023/01/25 05:24:28;;;;;;;16.88;12.73;;;;;;;2.63;74.55;100704.50;5105497;28;20306;-74
2023/01/25 05:27:02;;;;;;;20.13;15.05;;;;;;;2.46;74.59;100672.25;5104497;28;20059;-74
2023/01/25 05:29:30;;;;;;;21.25;14.60;;;;;;;2.08;74.63;100622.59;5105528;28;20036;-74
2023/01/25 05:31:57;;;;;;;18.52;14.10;;;;;;;2.62;74.76;100713.25;5105709;28;20063;-74
2023/01/25 05:34:26;;;;;;;20.55;14.02;;;;;;;2.63;74.69;100711.50;5105841;28;20325;-74
2023/01/25 05:36:53;;;;;;;18.98;14.57;;;;;;;2.03;74.54;100627.81;5109938;28;20047;-74
2023/01/25 05:39:19;;;;;;;19.15;14.50;;;;;;;2.62;74.77;100717.59;5108568;28;20028;-74
2023/01/25 05:41:46;;;;;;;20.35;14.50;;;;;;;2.60;74.59;100715.00;5108878;28;20040;-74
2023/01/25 05:44:13;;;;;;;18.40;14.90;;;;;;;2.59;74.70;100720.22;5109274;28;20044;-74
2023/01/25 05:46:40;;;;;;;20.23;15.07;;;;;;;2.59;74.79;100721.09;5109509;28;20054;-74
2023/01/25 05:49:07;;;;;;;21.27;15.45;;;;;;;2.42;74.87;100684.47;5109727;28;20046;-74
2023/01/25 05:51:35;;;;;;;22.27;15.20;;;;;;;2.60;74.72;100717.59;5108332;28;20044;-74
2023/01/25 05:54:03;;;;;;;21.98;14.75;;;;;;;2.60;74.75;100728.06;5109367;28;20169;-74
2023/01/25 05:56:29;;;;;;;20.40;15.52;;;;;;;2.59;75.00;100721.09;5108457;28;20044;-74
2023/01/25 05:58:58;;;;;;;20.23;15.90;;;;;;;2.58;74.84;100716.72;5109063;28;20227;-74
2023/01/25 06:01:25;;;;;;;23.38;16.83;;;;;;;2.60;74.87;100722.84;5108889;28;20050;-74
2023/01/25 06:03:52;;;;;;;20.25;15.10;;;;;;;2.61;74.92;100726.31;5109322;28;20044;-74
2023/01/25 06:06:19;;;;;;;19.95;15.32;;;;;;;2.61;74.84;100721.97;5109416;28;20062;-74
2023/01/25 06:08:48;;;;;;;23.30;15.60;;;;;;;2.60;74.90;100721.97;5108987;28;20050;-74
2023/01/25 06:11:17;;;;;;;22.10;15.07;;;;;;;2.58;74.83;100714.13;5107966;28;20032;-74
2023/01/25 06:13:44;;;;;;;19.90;15.23;;;;;;;2.58;74.94;100719.34;5108985;28;20054;-74
2023/01/25 06:16:11;;;;;;;21.95;14.70;;;;;;;2.44;74.90;100698.44;5109060;28;20059;-74
2023/01/25 06:18:39;;;;;;;21.25;14.48;;;;;;;0.03;74.74;100287.34;5091005;28;20127;-74
2023/01/25 06:21:06;;;;;;;17.83;13.52;;;;;;;2.59;74.90;100718.47;5108940;28;20063;-74
2023/01/25 06:23:33;;;;;;;19.35;13.88;;;;;;;2.59;74.71;100731.56;5108430;28;20050;-74
2023/01/25 06:26:03;;;;;;;19.08;13.00;;;;;;;2.59;74.84;100728.06;5109053;28;20050;-74
2023/01/25 06:28:31;;;;;;;16.95;13.48;;;;;;;2.59;74.96;100728.06;5108386;28;20044;-74
2023/01/25 06:31:04;;;;;;;19.50;14.50;;;;;;;2.58;74.71;100728.94;5108645;28;20349;-74
2023/01/25 06:33:31;;;;;;;18.35;14.35;;;;;;;2.58;74.95;100718.47;5108949;28;20048;-74
2023/01/25 06:36:00;;;;;;;19.85;14.52;;;;;;;2.59;74.78;100728.06;5108536;28;20040;-74
2023/01/25 06:38:27;;;;;;;18.55;13.52;;;;;;;2.60;74.92;100720.22;5107377;28;20288;-74
2023/01/25 06:40:54;;;;;;;17.02;13.20;;;;;;;2.60;74.72;100722.84;5107133;28;20048;-74
2023/01/25 06:43:22;;;;;;;19.92;14.45;;;;;;;2.60;74.75;100714.13;5107187;28;20036;-74
2023/01/25 06:45:49;;;;;;;18.45;13.13;;;;;;;2.60;74.72;100720.22;5107870;28;20040;-74
2023/01/25 06:48:16;;;;;;;17.17;13.88;;;;;;;2.45;74.76;100691.44;5106889;28;20054;-74
2023/01/25 06:50:43;;;;;;;16.83;12.93;;;;;;;2.59;74.89;100717.59;5107193;28;20068;-74
2023/01/25 06:53:09;;;;;;;19.08;12.52;;;;;;;2.60;74.75;100711.50;5108312;28;20040;-74
2023/01/25 06:55:36;;;;;;;17.00;13.75;;;;;;;2.59;74.92;100715.84;5107107;28;20048;-74
2023/01/25 06:58:03;;;;;;;19.63;13.32;;;;;;;2.59;74.82;100707.13;5108451;28;20035;-74
2023/01/25 07:00:31;;;;;;;17.83;13.05;;;;;;;2.59;74.86;100705.38;5108341;28;20062;-74
2023/01/25 07:03:00;;;;;;;17.27;13.63;;;;;;;2.57;74.77;100707.13;5106759;28;20308;-74
2023/01/25 07:05:27;;;;;;;19.02;13.63;;;;;;;2.57;74.86;100709.75;5107594;28;20052;-74
2023/01/25 07:07:54;;;;;;;21.83;14.98;;;;;;;2.57;74.93;100706.28;5108258;28;20061;-74
2023/01/25 07:10:20;;;;;;;19.08;12.48;;;;;;;2.56;75.06;100710.63;5107563;28;20040;-74
2023/01/25 07:12:47;;;;;;;16.85;12.85;;;;;;;2.57;74.98;100704.53;5106756;28;20300;-74
2023/01/25 07:15:14;;;;;;;16.17;12.20;;;;;;;2.59;75.02;100701.91;5107806;28;20054;-74
2023/01/25 07:17:42;;;;;;;16.75;13.63;;;;;;;2.60;74.65;100699.28;5107388;28;20215;-74
2023/01/25 07:20:10;;;;;;;18.58;13.18;;;;;;;2.62;74.87;100699.28;5106488;28;20088;-74
2023/01/25 07:22:37;;;;;;;20.00;13.45;;;;;;;2.60;74.94;100704.53;5107235;28;20199;-74
2023/01/25 07:25:05;;;;;;;18.20;13.38;;;;;;;2.60;74.92;100707.13;5107251;28;20046;-74
2023/01/25 07:27:33;;;;;;;18.30;13.13;;;;;;;2.60;74.82;100701.03;5106782;28;20052;-74
2023/01/25 07:30:00;;;;;;;19.40;14.82;;;;;;;2.60;74.85;100707.13;5107283;28;20036;-74
2023/01/25 07:32:27;;;;;;;18.88;14.32;;;;;;;2.59;74.83;100705.38;5107025;28;20040;-74
2023/01/25 07:34:55;;;;;;;19.60;14.30;;;;;;;2.59;74.91;100708.00;5106319;28;20039;-74
2023/01/25 07:37:22;;;;;;;18.08;12.77;;;;;;;2.61;74.83;100779.56;5107246;28;20055;-74
2023/01/25 07:39:49;;;;;;;17.50;13.07;;;;;;;2.59;74.96;100710.63;5107634;28;20165;-74
2023/01/25 07:42:17;;;;;;;17.67;12.75;;;;;;;2.21;74.87;100658.34;5106221;28;20303;-73
2023/01/25 07:44:43;;;;;;;18.67;12.50;;;;;;;2.60;74.94;100706.25;5106912;28;20058;-74
2023/01/25 07:47:10;;;;;;;19.15;12.82;;;;;;;2.59;74.99;100702.78;5107192;28;20040;-74
2023/01/25 07:49:37;;;;;;;17.58;13.52;;;;;;;2.59;74.98;100700.16;5106878;28;20066;-73
2023/01/25 07:52:05;;;;;;;19.83;14.18;;;;;;;2.58;75.01;100701.03;5105978;28;20036;-74
2023/01/25 07:54:32;;;;;;;16.75;13.18;;;;;;;2.59;74.68;100704.53;5106913;28;20040;-74
2023/01/25 07:56:59;;;;;;;21.02;13.70;;;;;;;2.59;75.02;100700.16;5107154;28;20055;-74
2023/01/25 07:59:26;;;;;;;19.92;13.85;;;;;;;2.60;75.02;100704.53;5106803;28;20035;-74
2023/01/25 08:01:53;;;;;;;18.08;13.55;;;;;;;1.76;74.93;100560.72;5106675;28;20296;-74
2023/01/25 08:04:20;;;;;;;17.38;13.43;;;;;;;2.60;74.94;100703.66;5106942;28;20048;-74
2023/01/25 08:06:46;;;;;;;19.08;12.65;;;;;;;2.48;74.93;100686.22;5106512;28;20044;-74
2023/01/25 08:09:18;;;;;;;21.45;14.00;;;;;;;2.60;74.88;100707.13;5105323;28;20219;-74
2023/01/25 08:11:46;;;;;;;19.52;13.80;;;;;;;2.60;75.02;100707.13;5106516;28;20246;-74
2023/01/25 08:14:13;;;;;;;17.38;12.75;;;;;;;2.60;75.03;100704.53;5105346;28;20050;-74
2023/01/25 08:16:39;;;;;;;19.92;12.20;;;;;;;2.59;75.02;100700.16;5106759;28;20111;-74
2023/01/25 08:19:06;;;;;;;18.42;13.73;;;;;;;2.60;75.00;100698.41;5105505;28;20051;-74
2023/01/25 08:21:35;;;;;;;17.02;12.80;;;;;;;2.60;74.96;100701.91;5105454;28;20036;-74
2023/01/25 08:24:03;;;;;;;15.82;11.43;;;;;;;2.61;74.95;100694.91;5106103;28;20085;-74
2023/01/25 08:26:32;;;;;;;20.40;13.50;;;;;;;2.62;74.93;100700.16;5106413;28;20077;-74
2023/01/25 08:28:58;;;;;;;16.95;11.65;;;;;;;2.61;74.82;100693.19;5105298;28;20044;-74
2023/01/25 08:31:27;;;;;;;19.50;15.00;;;;;;;2.63;74.70;100698.41;5105255;28;20036;-74
2023/01/25 08:33:54;;;;;;;19.98;13.50;;;;;;;2.62;74.79;100691.44;5105928;28;20042;-74
2023/01/25 08:36:22;;;;;;;17.85;12.77;;;;;;;2.62;74.69;100694.03;5106582;28;20048;-74
2023/01/25 08:38:54;;;;;;;19.65;14.43;;;;;;;2.62;74.64;100689.69;5106327;28;20284;-74
2023/01/25 08:41:22;;;;;;;21.58;13.75;;;;;;;2.34;74.62;100638.25;5105989;28;20219;-73
2023/01/25 08:43:52;;;;;;;17.55;12.05;;;;;;;2.61;74.65;100679.22;5106032;28;20054;-74
2023/01/25 08:46:21;;;;;;;19.38;13.48;;;;;;;2.60;74.72;100680.09;5106012;28;20032;-74
2023/01/25 08:48:48;;;;;;;16.25;13.00;;;;;;;2.61;74.77;100676.59;5105722;28;20306;-74
2023/01/25 08:51:16;;;;;;;16.83;13.27;;;;;;;2.60;74.76;100675.72;5106316;28;20051;-74
2023/01/25 08:53:43;;;;;;;17.10;12.30;;;;;;;2.60;74.82;100674.84;5106272;28;20097;-74
2023/01/25 08:56:11;;;;;;;18.15;13.13;;;;;;;2.60;74.46;100670.50;5105888;28;20101;-74
2023/01/25 08:58:40;;;;;;;19.80;14.05;;;;;;;2.61;74.68;100668.75;5105551;28;20048;-74
2023/01/25 09:01:11;;;;;;;18.13;13.10;;;;;;;2.61;74.62;100679.22;5106167;28;20084;-74
2023/01/25 09:03:39;;;;;;;17.25;12.52;;;;;;;2.62;74.65;100670.50;5105396;28;20043;-74
2023/01/25 09:06:08;;;;;;;19.13;12.30;;;;;;;2.63;74.72;100672.22;5105545;28;20040;-74
2023/01/25 09:08:36;;;;;;;16.23;12.48;;;;;;;2.63;74.51;100678.34;5105506;28;20188;-74
2023/01/25 09:11:04;;;;;;;18.50;13.52;;;;;;;2.64;74.59;100673.97;5104305;28;20044;-74
2023/01/25 09:13:31;;;;;;;19.02;11.80;;;;;;;2.63;74.49;100673.09;5105589;28;20046;-74
2023/01/25 09:16:01;;;;;;;18.13;12.52;;;;;;;2.64;74.42;100685.31;5104703;28;20292;-74
2023/01/25 09:18:31;;;;;;;22.50;12.05;;;;;;;2.64;74.38;100681.81;5105735;28;20231;-74
2023/01/25 09:20:58;;;;;;;15.40;12.02;;;;;;;2.65;74.48;100680.94;5105794;28;20370;-74
2023/01/25 09:23:25;;;;;;;15.25;11.30;;;;;;;2.64;74.35;100677.47;5104373;28;20042;-74
2023/01/25 09:25:57;;;;;;;16.90;11.80;;;;;;;2.65;74.33;100679.22;5106018;28;20047;-74
2023/01/25 09:28:24;;;;;;;19.08;11.98;;;;;;;2.66;74.28;100673.09;5104548;28;20036;-74
2023/01/25 09:30:55;;;;;;;18.80;12.70;;;;;;;2.23;74.21;100599.03;5105670;28;20047;-74
2023/01/25 09:33:25;;;;;;;16.20;11.77;;;;;;;2.67;74.32;100669.59;5105606;28;20047;-74
2023/01/25 09:35:54;;;;;;;16.92;11.15;;;;;;;2.68;74.28;100655.63;5105238;28;20036;-74
2023/01/25 09:38:20;;;;;;;14.52;11.50;;;;;;;2.70;74.30;100645.16;5105144;28;20046;-74
2023/01/25 09:40:58;;;;;;;15.25;11.85;;;;;;;2.68;74.12;100647.78;5105291;28;20071;-74
2023/01/25 09:43:38;;;;;;;30.02;12.15;;;;;;;2.69;74.17;100651.28;5104268;28;20040;-74
2023/01/25 09:46:17;;;;;;;12.90;10.52;;;;;;;2.70;74.12;100642.53;5104174;28;20123;-74
2023/01/25 09:48:55;;;;;;;15.98;11.52;;;;;;;2.69;73.97;100644.28;5105594;28;20040;-74
2023/01/25 09:51:27;;;;;;;16.23;10.40;;;;;;;2.70;73.96;100638.19;5105484;28;20063;-74
2023/01/25 09:53:58;;;;;;;16.10;11.98;;;;;;;2.72;73.95;100636.44;5104348;28;20032;-74
2023/01/25 09:56:28;;;;;;;14.55;8.68;;;;;;;2.74;73.92;100637.31;5105336;28;20244;-74
2023/01/25 09:58:58;;;;;;;15.40;11.35;;;;;;;2.74;73.81;100625.97;5104224;28;20047;-74
2023/01/25 10:01:33;;;;;;;13.85;11.05;;;;;;;2.76;73.71;100630.31;5104959;28;20077;-74
2023/01/25 10:04:05;;;;;;;16.40;11.93;;;;;;;2.74;73.74;100634.69;5105198;28;20097;-74
2023/01/25 10:06:38;;;;;;;13.75;10.60;;;;;;;2.76;73.67;100638.16;5104099;28;20043;-74
2023/01/25 10:09:16;;;;;;;14.80;9.98;;;;;;;2.35;73.47;100564.13;5104865;28;20052;-74
2023/01/25 10:11:43;;;;;;;14.93;10.13;;;;;;;2.78;73.68;100615.47;5104964;28;20036;-74
2023/01/25 10:14:14;;;;;;;13.50;10.25;;;;;;;2.77;73.53;100613.72;5105023;28;20104;-74
2023/01/25 10:16:51;;;;;;;16.33;11.65;;;;;;;2.78;73.37;100598.88;5104112;28;20089;-74
2023/01/25 10:19:23;;;;;;;14.07;10.82;;;;;;;2.78;73.54;100591.91;5103967;28;20051;-74
2023/01/25 10:21:56;;;;;;;16.30;11.32;;;;;;;2.78;73.74;100586.66;5104884;28;20300;-74
2023/01/25 10:24:41;;;;;;;17.35;12.02;;;;;;;2.78;73.23;100591.03;5109010;28;20040;-74
2023/01/25 10:27:22;;;;;;;16.30;10.87;;;;;;;2.76;73.41;100583.19;5107647;28;20066;-74
2023/01/25 10:29:52;;;;;;;16.85;10.82;;;;;;;2.78;73.53;100591.03;5108566;28;20420;-74
2023/01/25 10:32:23;;;;;;;14.73;10.93;;;;;;;2.79;73.71;100575.31;5108911;28;20048;-74
2023/01/25 10:34:50;;;;;;;14.13;10.77;;;;;;;2.81;73.52;100570.06;5108607;28;20194;-74
2023/01/25 10:37:22;;;;;;;13.02;10.20;;;;;;;0.40;73.17;100151.81;5108248;28;20055;-74
2023/01/25 10:39:57;;;;;;;15.60;11.77;;;;;;;2.83;73.19;100558.72;5107487;28;20040;-74
2023/01/25 10:42:27;;;;;;;13.93;11.02;;;;;;;2.82;73.24;100562.22;5107194;28;20047;-74
2023/01/25 10:44:54;;;;;;;15.70;10.82;;;;;;;2.82;73.27;100563.97;5108375;28;20043;-74
2023/01/25 10:47:25;;;;;;;13.75;10.05;;;;;;;2.83;73.37;100555.22;5107199;28;20042;-74
2023/01/25 10:49:54;;;;;;;13.60;11.52;;;;;;;2.85;73.28;100567.44;5108016;28;20094;-74
2023/01/25 10:52:25;;;;;;;13.20;10.07;;;;;;;2.84;73.11;100550.00;5108360;28;20284;-74
2023/01/25 10:55:12;;;;;;;14.80;9.80;;;;;;;2.48;72.71;100487.34;5107111;28;20047;-74
2023/01/25 10:57:44;;;;;;;12.55;10.35;;;;;;;2.86;73.00;100552.59;5108142;28;20260;-74
2023/01/25 11:00:25;;;;;;;15.57;11.75;;;;;;;2.31;72.84;100463.00;5107002;28;20085;-74
2023/01/25 11:02:53;;;;;;;14.07;10.18;;;;;;;2.88;72.87;100545.59;5107228;28;20055;-74
2023/01/25 11:05:26;;;;;;;16.98;10.75;;;;;;;2.90;72.70;100551.72;5107887;28;20307;-74
2023/01/25 11:07:55;;;;;;;15.93;12.15;;;;;;;2.92;72.79;100528.13;5107456;28;20032;-74
2023/01/25 11:10:30;;;;;;;16.48;10.50;;;;;;;2.92;72.64;100531.63;5107327;28;20210;-74
2023/01/25 11:13:20;;;;;;;14.88;10.63;;;;;;;2.93;72.29;100527.25;5107388;28;20199;-74
2023/01/25 11:15:49;;;;;;;16.27;11.63;;;;;;;2.94;72.63;100529.00;5107318;28;20336;-74
2023/01/25 11:18:20;;;;;;;17.02;12.32;;;;;;;2.92;72.61;100515.91;5107437;28;20035;-74
2023/01/25 11:20:47;;;;;;;14.88;10.93;;;;;;;2.95;72.73;100517.63;5106379;28;20050;-74
2023/01/25 11:23:23;;;;;;;16.67;12.98;;;;;;;2.94;72.32;100521.13;5107140;28;20042;-74